Time;durP1;ratioP1;P1;durP2;ratioP2;P2;SDS_P1;SDS_P2;PMS_P1;PMS_P2;Temp;Humidity;BMP_temperature;BMP_pressure;BME280_temperature;BME280_humidity;BME280_pressure;Samples;Min_cycle;Max_cycle;Signal;HPM_P1;HPM_P2
2021/07/28 00:00:16;;;;;;;10.88;8.73;;;19.70;90.90;;;;;;4994662;28;20026;-68
2021/07/28 00:02:42;;;;;;;12.02;8.20;;;19.70;90.90;;;;;;5012414;28;20050;-69
2021/07/28 00:05:09;;;;;;;11.27;8.80;;;19.70;90.90;;;;;;5010828;28;20057;-69
2021/07/28 00:07:35;;;;;;;13.57;9.23;;;19.70;91.00;;;;;;5011612;28;20071;-69
2021/07/28 00:10:00;;;;;;;11.32;8.73;;;19.70;91.10;;;;;;5011827;28;20108;-70
2021/07/28 00:12:26;;;;;;;11.68;8.63;;;19.70;91.10;;;;;;5011925;28;20689;-68
2021/07/28 00:14:51;;;;;;;10.65;8.60;;;19.70;91.20;;;;;;5009903;28;20116;-66
2021/07/28 00:17:17;;;;;;;14.68;9.50;;;19.70;91.20;;;;;;5011813;28;20025;-69
2021/07/28 00:25:12;;;;;;;12.45;9.05;;;19.60;91.30;;;;;;5010925;28;20033;-68
2021/07/28 00:27:38;;;;;;;13.43;9.68;;;19.60;91.30;;;;;;5011442;28;20029;-69
2021/07/28 00:30:08;;;;;;;13.90;10.65;;;19.50;91.30;;;;;;5011064;28;20025;-67
2021/07/28 00:32:34;;;;;;;16.75;9.63;;;19.50;91.40;;;;;;5010077;28;20022;-69
2021/07/28 00:35:00;;;;;;;16.58;9.85;;;19.40;91.30;;;;;;5010670;28;20036;-68
2021/07/28 00:37:25;;;;;;;16.13;10.13;;;19.40;91.50;;;;;;5010892;28;20375;-69
2021/07/28 00:39:51;;;;;;;12.68;9.73;;;19.30;91.40;;;;;;5011358;28;20097;-69
2021/07/28 00:42:16;;;;;;;12.85;10.40;;;19.30;91.60;;;;;;5011256;28;20501;-69
2021/07/28 00:44:42;;;;;;;16.58;10.43;;;19.30;91.60;;;;;;5010488;28;20083;-68
2021/07/28 00:47:10;;;;;;;19.00;10.82;;;19.30;91.60;;;;;;5010677;28;20029;-69
2021/07/28 00:49:36;;;;;;;16.48;11.70;;;19.30;91.60;;;;;;5011316;28;20411;-68
2021/07/28 00:52:03;;;;;;;13.35;10.63;;;19.30;91.50;;;;;;5011228;28;20063;-68
2021/07/28 00:54:30;;;;;;;14.48;10.73;;;19.20;91.60;;;;;;5009452;28;20486;-68
2021/07/28 00:56:57;;;;;;;15.13;10.80;;;19.10;91.70;;;;;;5010443;28;20041;-69
2021/07/28 00:59:23;;;;;;;13.38;9.77;;;19.20;91.90;;;;;;5011062;28;20045;-68
2021/07/28 01:01:49;;;;;;;15.50;10.65;;;19.20;92.00;;;;;;5010839;28;20112;-69
2021/07/28 01:04:15;;;;;;;14.73;10.32;;;19.20;92.00;;;;;;5010890;28;20025;-69
2021/07/28 01:06:40;;;;;;;16.90;11.75;;;19.30;92.10;;;;;;5010040;28;20109;-66
2021/07/28 01:09:06;;;;;;;18.20;10.82;;;19.30;92.10;;;;;;5010538;28;20525;-69
2021/07/28 01:11:31;;;;;;;17.27;11.45;;;19.30;92.10;;;;;;5010846;28;20040;-70
2021/07/28 01:13:57;;;;;;;16.55;11.50;;;19.30;92.10;;;;;;5010897;28;20026;-69
2021/07/28 01:16:25;;;;;;;15.43;10.88;;;19.30;92.10;;;;;;5009335;28;20449;-69
2021/07/28 01:18:51;;;;;;;18.85;12.10;;;19.30;92.20;;;;;;5010467;28;20108;-68
2021/07/28 01:21:19;;;;;;;18.85;12.00;;;19.30;92.00;;;;;;5011046;28;20383;-68
2021/07/28 01:23:46;;;;;;;18.45;11.85;;;19.30;92.00;;;;;;5010843;28;20529;-66
2021/07/28 01:26:14;;;;;;;16.38;11.43;;;19.20;92.10;;;;;;5008676;28;20113;-69
2021/07/28 01:28:40;;;;;;;18.45;12.57;;;19.20;92.10;;;;;;5010699;28;20022;-68
2021/07/28 01:31:09;;;;;;;16.48;12.65;;;19.20;92.10;;;;;;5009953;28;20041;-68
2021/07/28 01:33:36;;;;;;;19.08;12.75;;;19.10;92.10;;;;;;5007545;28;20022;-70
2021/07/28 01:36:06;;;;;;;15.27;11.73;;;19.00;92.00;;;;;;5009383;28;20056;-69
2021/07/28 01:38:32;;;;;;;16.90;11.90;;;19.10;92.20;;;;;;5020759;23;20065;-89
2021/07/28 01:41:00;;;;;;;17.75;12.93;;;19.00;92.30;;;;;;4987576;28;20030;-89
2021/07/28 01:43:27;;;;;;;19.25;13.20;;;19.00;92.40;;;;;;4995402;28;20071;-89
2021/07/28 01:45:53;;;;;;;19.52;12.70;;;19.10;92.50;;;;;;5014408;28;20101;-89
2021/07/28 01:48:18;;;;;;;19.95;13.75;;;19.10;92.60;;;;;;5011733;28;20026;-89
2021/07/28 01:50:48;;;;;;;21.95;13.25;;;19.10;92.60;;;;;;5004977;28;20027;-90
2021/07/28 01:53:14;;;;;;;19.05;12.45;;;19.20;92.70;;;;;;4974938;28;20026;-90
2021/07/28 01:55:41;;;;;;;17.00;11.80;;;19.20;92.80;;;;;;4974299;28;20034;-89
2021/07/28 01:58:07;;;;;;;20.05;12.52;;;19.20;92.80;;;;;;4998798;28;20022;-89
2021/07/28 02:00:33;;;;;;;19.88;13.43;;;19.20;92.70;;;;;;4998626;28;20029;-89
2021/07/28 02:03:04;;;;;;;17.83;12.52;;;19.20;92.70;;;;;;4993975;28;20065;-89
2021/07/28 02:05:30;;;;;;;18.17;12.47;;;19.20;92.80;;;;;;4993298;28;20028;-89
2021/07/28 02:08:01;;;;;;;21.38;12.93;;;19.20;92.80;;;;;;4986138;28;20482;-89
2021/07/28 02:10:28;;;;;;;15.85;11.63;;;19.30;92.90;;;;;;4974809;28;20026;-89
2021/07/28 02:12:53;;;;;;;21.35;13.95;;;19.20;92.90;;;;;;4974239;28;20533;-89
2021/07/28 02:15:19;;;;;;;22.40;13.38;;;19.20;92.80;;;;;;4974111;28;20110;-89
2021/07/28 02:17:44;;;;;;;20.35;13.57;;;19.20;92.80;;;;;;4974509;28;20026;-89
2021/07/28 02:20:11;;;;;;;18.98;13.25;;;19.20;92.80;;;;;;4992143;28;20022;-89
2021/07/28 02:22:36;;;;;;;18.65;13.10;;;19.10;92.80;;;;;;4974151;28;20460;-90
2021/07/28 02:25:02;;;;;;;21.20;13.40;;;19.00;92.80;;;;;;4974011;28;20064;-89
2021/07/28 02:27:27;;;;;;;22.50;14.82;;;19.00;92.90;;;;;;4993333;28;20393;-89
2021/07/28 02:29:53;;;;;;;21.48;14.38;;;18.90;92.90;;;;;;5007540;28;20033;-89
2021/07/28 02:32:18;;;;;;;21.48;14.70;;;18.90;93.00;;;;;;4992997;28;20115;-89
2021/07/28 02:34:44;;;;;;;21.40;13.30;;;18.80;92.90;;;;;;4993109;28;20041;-89
2021/07/28 02:37:10;;;;;;;18.15;12.60;;;18.70;93.10;;;;;;4995076;28;20068;-89
2021/07/28 02:39:35;;;;;;;19.70;13.57;;;18.70;93.50;;;;;;4997471;28;20049;-89
2021/07/28 02:42:01;;;;;;;21.40;13.40;;;18.70;93.20;;;;;;4997065;28;20117;-89
2021/07/28 02:44:26;;;;;;;22.20;14.15;;;18.70;93.10;;;;;;4997284;28;20018;-89
2021/07/28 02:46:52;;;;;;;18.92;13.45;;;18.60;93.20;;;;;;5013158;28;20237;-89
2021/07/28 02:49:17;;;;;;;23.65;14.40;;;18.60;93.30;;;;;;4997597;28;20113;-90
2021/07/28 02:51:43;;;;;;;19.23;13.30;;;18.60;93.40;;;;;;4996974;28;20022;-89
2021/07/28 02:54:10;;;;;;;18.92;13.23;;;18.70;93.40;;;;;;4997386;28;20501;-89
2021/07/28 02:56:36;;;;;;;19.67;13.45;;;18.60;93.40;;;;;;5013721;28;20032;-89
2021/07/28 02:59:02;;;;;;;20.63;14.13;;;18.70;93.50;;;;;;5005036;28;20108;-89
2021/07/28 03:01:27;;;;;;;18.17;13.50;;;18.70;93.60;;;;;;4993436;28;20398;-89
2021/07/28 03:03:53;;;;;;;20.58;13.70;;;18.70;93.70;;;;;;4977846;28;20023;-89
2021/07/28 03:06:18;;;;;;;19.88;13.73;;;18.70;93.60;;;;;;4976716;28;20031;-89
2021/07/28 03:08:44;;;;;;;20.52;14.13;;;18.70;93.40;;;;;;4990640;28;20109;-89
2021/07/28 03:11:09;;;;;;;19.77;14.32;;;18.60;93.60;;;;;;4996491;28;20026;-89
2021/07/28 03:13:35;;;;;;;20.88;14.43;;;18.60;93.80;;;;;;5014406;28;20097;-89
2021/07/28 03:16:08;;;;;;;20.33;14.00;;;18.70;93.80;;;;;;4996415;28;20548;-89
2021/07/28 03:18:33;;;;;;;18.55;13.18;;;18.70;93.80;;;;;;4995479;28;20041;-89
2021/07/28 03:20:59;;;;;;;20.92;14.02;;;18.70;93.80;;;;;;4996670;28;20018;-89
2021/07/28 03:23:25;;;;;;;19.73;14.05;;;18.70;93.80;;;;;;4996503;28;20022;-89
2021/07/28 03:25:50;;;;;;;19.63;13.70;;;18.70;93.90;;;;;;4995943;28;20113;-89
2021/07/28 03:28:16;;;;;;;20.35;13.65;;;18.70;93.80;;;;;;5004535;28;20482;-89
2021/07/28 03:30:41;;;;;;;22.23;13.98;;;18.70;93.80;;;;;;5029564;28;20025;-89
2021/07/28 03:33:07;;;;;;;19.08;13.88;;;18.70;93.80;;;;;;4995303;28;20021;-89
2021/07/28 03:35:33;;;;;;;18.00;13.00;;;18.70;93.80;;;;;;4995351;28;20482;-89
2021/07/28 03:37:58;;;;;;;18.75;12.05;;;18.60;93.80;;;;;;4996105;28;20116;-89
2021/07/28 03:40:24;;;;;;;22.83;13.13;;;18.60;93.90;;;;;;4996224;28;20018;-89
2021/07/28 03:42:50;;;;;;;21.88;13.15;;;18.60;94.00;;;;;;4996257;28;20054;-88
2021/07/28 03:45:15;;;;;;;23.45;13.60;;;18.70;94.00;;;;;;4995836;28;20649;-89
2021/07/28 03:47:41;;;;;;;19.45;13.10;;;18.70;94.20;;;;;;4982330;28;20037;-89
2021/07/28 03:50:07;;;;;;;19.15;13.60;;;18.70;93.90;;;;;;4976212;28;20398;-89
2021/07/28 03:52:33;;;;;;;21.77;13.68;;;18.70;93.90;;;;;;4976239;28;20490;-88
2021/07/28 03:54:58;;;;;;;19.88;13.93;;;18.70;93.90;;;;;;4976110;28;20113;-89
2021/07/28 03:57:24;;;;;;;19.25;13.20;;;18.70;93.90;;;;;;4995155;28;20018;-88
2021/07/28 03:59:49;;;;;;;21.38;14.43;;;18.70;93.90;;;;;;5027032;28;20417;-89
2021/07/28 04:02:15;;;;;;;27.00;14.68;;;18.60;93.90;;;;;;4996337;28;20030;-89
2021/07/28 04:04:40;;;;;;;19.55;13.15;;;18.60;94.00;;;;;;4998174;28;20041;-89
2021/07/28 04:07:07;;;;;;;18.20;13.80;;;18.60;94.00;;;;;;4998870;28;20392;-89
2021/07/28 04:09:33;;;;;;;18.70;12.68;;;18.60;94.00;;;;;;5017082;28;20041;-89
2021/07/28 04:11:58;;;;;;;22.27;12.82;;;18.60;94.10;;;;;;4989045;28;20026;-89
2021/07/28 04:14:24;;;;;;;18.90;13.32;;;18.60;94.00;;;;;;4977053;28;20026;-89
2021/07/28 04:16:50;;;;;;;20.70;13.57;;;18.60;93.90;;;;;;4975939;28;20073;-89
2021/07/28 04:19:15;;;;;;;18.45;13.15;;;18.50;94.00;;;;;;4976368;28;20025;-89
2021/07/28 04:21:41;;;;;;;19.13;13.10;;;18.50;94.00;;;;;;4976299;28;20038;-89
2021/07/28 04:24:06;;;;;;;17.27;12.10;;;18.60;94.10;;;;;;4976443;28;20026;-89
2021/07/28 04:26:32;;;;;;;19.45;13.00;;;18.60;94.10;;;;;;4981743;28;20113;-89
2021/07/28 04:28:57;;;;;;;20.50;13.23;;;18.60;94.10;;;;;;5009483;28;20028;-90
2021/07/28 04:31:23;;;;;;;23.10;13.57;;;18.60;94.10;;;;;;5001906;28;20458;-88
2021/07/28 04:33:49;;;;;;;17.95;12.60;;;18.60;94.10;;;;;;4995146;28;20076;-89
2021/07/28 04:36:14;;;;;;;19.80;13.05;;;18.50;93.90;;;;;;4994244;28;20068;-89
2021/07/28 04:38:40;;;;;;;16.73;11.70;;;18.50;94.00;;;;;;5013281;28;20346;-89
2021/07/28 04:41:06;;;;;;;18.73;11.95;;;18.40;93.90;;;;;;4994894;28;20072;-89
2021/07/28 04:43:31;;;;;;;14.50;10.93;;;18.40;93.90;;;;;;4995077;28;20028;-89
2021/07/28 04:45:58;;;;;;;15.38;11.20;;;18.30;94.10;;;;;;4994219;28;20026;-89
2021/07/28 04:48:25;;;;;;;15.85;10.52;;;18.30;94.20;;;;;;4995243;28;20461;-89
2021/07/28 04:50:51;;;;;;;13.90;10.40;;;18.30;94.10;;;;;;4997691;28;20462;-89
2021/07/28 04:53:17;;;;;;;13.77;9.98;;;18.30;94.10;;;;;;5018596;28;20041;-89
2021/07/28 04:55:42;;;;;;;16.30;10.27;;;18.30;94.20;;;;;;5017801;28;20097;-89
2021/07/28 04:58:08;;;;;;;16.05;10.25;;;18.30;94.30;;;;;;5025421;28;20029;-89
2021/07/28 05:00:33;;;;;;;14.48;9.48;;;18.30;94.20;;;;;;5029374;28;20026;-89
2021/07/28 05:02:59;;;;;;;11.73;8.85;;;18.30;94.10;;;;;;5011593;28;20474;-89
2021/07/28 05:05:24;;;;;;;14.07;9.05;;;18.30;94.20;;;;;;4994681;28;20520;-89
2021/07/28 05:07:50;;;;;;;12.20;8.73;;;18.30;94.30;;;;;;4995489;28;20037;-88
2021/07/28 05:10:16;;;;;;;15.13;9.70;;;18.40;94.30;;;;;;4995004;28;20351;-89
2021/07/28 05:12:41;;;;;;;13.70;10.60;;;18.40;94.20;;;;;;5012448;28;20481;-89
2021/07/28 05:15:08;;;;;;;16.08;10.68;;;18.40;94.20;;;;;;4994270;28;20029;-89
2021/07/28 05:17:34;;;;;;;12.75;9.55;;;18.40;94.10;;;;;;5012357;28;20032;-89
2021/07/28 05:19:59;;;;;;;16.33;10.55;;;18.40;94.30;;;;;;4994578;28;20402;-89
2021/07/28 05:22:25;;;;;;;15.27;10.70;;;18.30;94.30;;;;;;5012331;28;20022;-89
2021/07/28 05:24:52;;;;;;;15.35;10.02;;;18.30;94.30;;;;;;4994818;28;20116;-89
2021/07/28 05:27:18;;;;;;;14.27;10.07;;;18.40;94.40;;;;;;4993982;28;20486;-89
2021/07/28 05:29:43;;;;;;;13.25;9.60;;;18.40;94.40;;;;;;5006960;28;20056;-89
2021/07/28 05:32:09;;;;;;;10.90;8.27;;;18.50;94.40;;;;;;4996976;28;20080;-88
2021/07/28 05:34:35;;;;;;;11.23;8.60;;;18.50;94.20;;;;;;4999957;28;20537;-89
2021/07/28 05:37:00;;;;;;;10.48;7.50;;;18.50;94.20;;;;;;4992147;28;20483;-89
2021/07/28 05:39:26;;;;;;;10.13;5.97;;;18.50;94.10;;;;;;4975140;28;20026;-88
2021/07/28 05:41:52;;;;;;;7.43;5.03;;;18.40;93.90;;;;;;4974787;28;20026;-88
2021/07/28 05:44:17;;;;;;;6.43;4.90;;;18.40;93.80;;;;;;4992320;28;20391;-88
2021/07/28 05:46:43;;;;;;;7.70;5.28;;;18.30;93.70;;;;;;4979998;28;20486;-88
2021/07/28 05:49:08;;;;;;;8.18;5.35;;;18.30;93.60;;;;;;4992579;28;20056;-88
2021/07/28 05:51:34;;;;;;;6.95;5.20;;;18.20;93.50;;;;;;4994183;28;20030;-88
2021/07/28 05:53:59;;;;;;;7.85;5.32;;;18.20;93.40;;;;;;4994239;28;20029;-88
2021/07/28 05:56:25;;;;;;;6.72;4.30;;;18.20;93.50;;;;;;4993223;28;20034;-88
2021/07/28 05:58:51;;;;;;;7.55;4.93;;;18.20;93.50;;;;;;5025063;28;20022;-88
2021/07/28 06:01:16;;;;;;;7.20;5.00;;;18.20;93.40;;;;;;5029211;28;20363;-88
2021/07/28 06:03:42;;;;;;;6.18;4.82;;;18.20;93.40;;;;;;4974694;28;20038;-88
2021/07/28 06:06:07;;;;;;;6.25;4.55;;;18.20;93.30;;;;;;4974133;28;20038;-88
2021/07/28 06:08:33;;;;;;;8.60;5.25;;;18.20;93.30;;;;;;4992142;28;20037;-88
2021/07/28 06:10:58;;;;;;;8.65;5.28;;;18.20;93.30;;;;;;4992188;28;20030;-88
2021/07/28 06:13:24;;;;;;;7.68;4.97;;;18.20;93.20;;;;;;4995804;28;20097;-88
2021/07/28 06:15:51;;;;;;;5.25;4.75;;;18.20;93.30;;;;;;4995065;28;20038;-88
2021/07/28 06:18:16;;;;;;;6.82;4.68;;;18.30;93.30;;;;;;4978114;28;20566;-88
2021/07/28 06:20:42;;;;;;;6.05;4.90;;;18.30;93.30;;;;;;4980273;28;20125;-88
2021/07/28 06:23:08;;;;;;;5.65;4.68;;;18.30;93.10;;;;;;4997711;28;20089;-88
2021/07/28 06:25:33;;;;;;;6.88;5.03;;;18.40;93.10;;;;;;4979070;28;20026;-88
2021/07/28 06:27:59;;;;;;;5.78;4.88;;;18.40;93.10;;;;;;5014616;28;20084;-89
2021/07/28 06:30:24;;;;;;;7.13;4.88;;;18.40;92.90;;;;;;5005721;28;20096;-88
2021/07/28 06:32:50;;;;;;;6.70;4.85;;;18.30;92.90;;;;;;5011244;28;20379;-88
2021/07/28 06:35:16;;;;;;;5.35;4.85;;;18.30;92.80;;;;;;4990889;28;20033;-88
2021/07/28 06:37:41;;;;;;;7.57;5.20;;;18.30;92.90;;;;;;4992143;28;20034;-88
2021/07/28 06:40:07;;;;;;;7.15;5.22;;;18.30;93.00;;;;;;4978028;28;20022;-88
2021/07/28 06:42:33;;;;;;;5.47;4.35;;;18.40;93.10;;;;;;4977994;28;20027;-88
2021/07/28 06:44:59;;;;;;;5.30;4.72;;;18.40;92.90;;;;;;4977353;28;20026;-87
2021/07/28 06:47:24;;;;;;;7.07;4.95;;;18.50;93.00;;;;;;4994899;28;20058;-88
2021/07/28 06:49:50;;;;;;;6.90;5.22;;;18.60;92.90;;;;;;4977940;28;20031;-88
2021/07/28 06:52:15;;;;;;;5.30;4.43;;;18.60;92.90;;;;;;4977672;28;20117;-89
2021/07/28 06:54:41;;;;;;;5.60;4.60;;;18.60;92.80;;;;;;4977254;28;20064;-89
2021/07/28 06:57:07;;;;;;;5.50;4.47;;;18.60;92.70;;;;;;5003181;28;20026;-88
2021/07/28 06:59:32;;;;;;;6.63;4.70;;;18.60;92.70;;;;;;5004985;28;20117;-89
2021/07/28 07:01:58;;;;;;;5.30;4.75;;;18.60;92.70;;;;;;4996858;28;20033;-88
2021/07/28 07:04:23;;;;;;;6.10;5.05;;;18.70;92.80;;;;;;5014477;28;20034;-88
2021/07/28 07:06:49;;;;;;;9.13;5.25;;;18.70;92.70;;;;;;4982403;28;20041;-88
2021/07/28 07:09:14;;;;;;;7.10;5.05;;;18.70;92.70;;;;;;4994915;28;20033;-88
2021/07/28 07:11:40;;;;;;;5.88;4.80;;;18.70;92.70;;;;;;4977409;28;20023;-88
2021/07/28 07:14:05;;;;;;;5.25;4.75;;;18.70;92.70;;;;;;4994743;28;20026;-88
2021/07/28 07:16:31;;;;;;;6.72;5.00;;;18.80;92.70;;;;;;4977339;28;20030;-89
2021/07/28 07:18:57;;;;;;;5.90;4.63;;;18.70;92.40;;;;;;4976791;28;20068;-89
2021/07/28 07:21:22;;;;;;;6.88;5.00;;;18.70;92.40;;;;;;4988703;28;20426;-88
2021/07/28 07:23:49;;;;;;;8.32;4.82;;;18.70;92.50;;;;;;4996336;28;20112;-88
2021/07/28 07:26:14;;;;;;;6.00;4.65;;;18.70;92.50;;;;;;4993912;28;20030;-89
2021/07/28 07:28:40;;;;;;;6.82;4.45;;;18.80;92.50;;;;;;4995896;28;20022;-88
2021/07/28 07:31:10;;;;;;;6.65;4.85;;;18.80;92.60;;;;;;5004679;28;20490;-88
2021/07/28 07:33:39;;;;;;;7.47;4.47;;;18.80;92.50;;;;;;5015908;28;20171;-88
2021/07/28 07:36:10;;;;;;;6.43;4.97;;;18.80;92.50;;;;;;5020094;28;20387;-88
2021/07/28 07:38:36;;;;;;;5.35;4.82;;;18.80;92.60;;;;;;5065892;23;20633;-70
2021/07/28 07:41:03;;;;;;;5.75;5.10;;;18.90;92.50;;;;;;4993190;28;20054;-70
2021/07/28 07:43:28;;;;;;;8.10;5.05;;;18.90;92.60;;;;;;5006335;28;20508;-72
2021/07/28 07:45:55;;;;;;;6.10;5.10;;;18.90;92.50;;;;;;5004797;28;20042;-71
2021/07/28 07:48:22;;;;;;;6.25;4.93;;;18.80;92.40;;;;;;4990493;28;20061;-72
2021/07/28 07:50:48;;;;;;;8.80;5.38;;;18.80;92.30;;;;;;4991671;28;20479;-70
2021/07/28 07:53:13;;;;;;;6.53;5.18;;;18.80;92.40;;;;;;4993301;28;20038;-70
2021/07/28 07:55:39;;;;;;;8.27;4.90;;;18.80;92.40;;;;;;4992126;28;20537;-70
2021/07/28 07:58:04;;;;;;;8.55;5.22;;;18.80;92.50;;;;;;4993025;28;20102;-70
2021/07/28 08:00:30;;;;;;;8.02;5.15;;;18.80;92.40;;;;;;4992966;28;20031;-69
2021/07/28 08:02:56;;;;;;;6.72;5.18;;;18.70;92.40;;;;;;4993533;28;20034;-70
2021/07/28 08:05:21;;;;;;;6.47;4.82;;;18.70;92.30;;;;;;4992190;28;20522;-70
2021/07/28 08:07:47;;;;;;;6.35;5.20;;;18.70;92.30;;;;;;4991944;28;20057;-69
2021/07/28 08:10:14;;;;;;;6.28;5.03;;;18.70;92.30;;;;;;4993222;28;20022;-69
2021/07/28 08:12:39;;;;;;;7.97;5.28;;;18.70;92.30;;;;;;4989726;28;20426;-71
2021/07/28 08:15:05;;;;;;;6.47;4.82;;;18.70;92.30;;;;;;4986690;28;20030;-69
2021/07/28 08:17:31;;;;;;;6.82;5.05;;;18.70;92.20;;;;;;4991399;28;20390;-69
2021/07/28 08:19:57;;;;;;;8.15;5.22;;;18.70;92.20;;;;;;4991794;28;20106;-69
2021/07/28 08:22:23;;;;;;;12.30;5.00;;;18.60;92.10;;;;;;4990616;28;20034;-68
2021/07/28 08:24:49;;;;;;;6.07;4.82;;;18.60;92.10;;;;;;4992134;28;20015;-69
2021/07/28 08:27:14;;;;;;;7.07;5.15;;;18.60;92.00;;;;;;4992072;28;20037;-69
2021/07/28 08:29:40;;;;;;;6.03;4.70;;;18.60;91.90;;;;;;4990920;28;20022;-69
2021/07/28 08:32:06;;;;;;;5.45;4.38;;;18.60;92.00;;;;;;4990509;28;20023;-68
2021/07/28 08:34:32;;;;;;;5.80;5.20;;;18.60;92.10;;;;;;4991095;28;20033;-69
2021/07/28 08:36:58;;;;;;;8.70;6.38;;;18.60;92.20;;;;;;4991920;28;20057;-69
2021/07/28 08:39:23;;;;;;;7.85;5.47;;;18.70;92.10;;;;;;4990753;28;20073;-69
2021/07/28 08:41:52;;;;;;;6.90;5.28;;;18.70;92.00;;;;;;4991670;28;20026;-70
2021/07/28 08:44:20;;;;;;;6.20;4.60;;;18.60;91.90;;;;;;4992246;28;20023;-69
2021/07/28 08:46:46;;;;;;;6.35;4.95;;;18.60;91.80;;;;;;4991166;28;20105;-68
2021/07/28 08:49:12;;;;;;;7.13;4.68;;;18.50;91.80;;;;;;4992375;28;20026;-68
2021/07/28 08:51:42;;;;;;;6.32;5.05;;;18.50;91.70;;;;;;4990951;28;20490;-69
2021/07/28 08:54:08;;;;;;;6.00;4.97;;;18.40;91.80;;;;;;4991413;28;20049;-68
2021/07/28 08:56:39;;;;;;;8.60;5.78;;;18.40;91.80;;;;;;4991145;28;20039;-68
2021/07/28 08:59:05;;;;;;;7.80;6.43;;;18.40;91.70;;;;;;4992134;28;20030;-70
2021/07/28 09:01:31;;;;;;;5.68;5.07;;;18.30;91.70;;;;;;4992239;28;20253;-70
2021/07/28 09:03:56;;;;;;;6.43;4.95;;;18.30;91.70;;;;;;4991365;28;20030;-68
2021/07/28 09:06:31;;;;;;;5.78;5.05;;;18.30;91.70;;;;;;4991068;28;20057;-69
2021/07/28 09:08:59;;;;;;;6.82;4.95;;;18.30;91.80;;;;;;4991453;28;20105;-70
2021/07/28 09:11:24;;;;;;;6.95;5.47;;;18.30;91.70;;;;;;4991536;28;20077;-68
2021/07/28 09:13:54;;;;;;;6.30;5.03;;;18.30;91.70;;;;;;4984335;28;20054;-69
2021/07/28 09:16:20;;;;;;;5.63;4.85;;;18.30;91.80;;;;;;4990701;28;20030;-69
2021/07/28 09:18:50;;;;;;;8.75;5.20;;;18.30;91.90;;;;;;4991393;28;20378;-69
2021/07/28 09:21:19;;;;;;;7.28;5.00;;;18.40;91.90;;;;;;4991828;28;20518;-69
2021/07/28 09:23:46;;;;;;;8.45;5.40;;;18.40;91.90;;;;;;4989007;28;20500;-69
2021/07/28 09:26:37;;;;;;;6.85;5.00;;;18.50;92.20;;;;;;4990484;28;20041;-69
2021/07/28 09:29:10;;;;;;;7.65;5.35;;;18.50;91.80;;;;;;4991373;28;20019;-69
2021/07/28 09:32:02;;;;;;;6.32;4.97;;;18.50;91.90;;;;;;4991607;28;20069;-69
2021/07/28 09:34:28;;;;;;;7.85;5.53;;;18.60;91.80;;;;;;4989204;28;20042;-70
2021/07/28 09:36:58;;;;;;;8.38;5.20;;;18.70;91.70;;;;;;4990833;28;20030;-71
2021/07/28 09:39:33;;;;;;;5.47;4.68;;;18.70;91.70;;;;;;4989880;28;20034;-70
2021/07/28 09:42:14;;;;;;;6.05;5.38;;;18.80;91.70;;;;;;4991697;28;20019;-69
2021/07/28 09:44:42;;;;;;;6.70;5.38;;;18.80;91.50;;;;;;4990464;28;20026;-70
2021/07/28 09:47:12;;;;;;;6.63;5.15;;;18.90;91.50;;;;;;4993422;28;20018;-69
2021/07/28 09:49:49;;;;;;;6.13;4.88;;;18.90;91.60;;;;;;4994436;28;20077;-69
2021/07/28 09:52:26;;;;;;;6.25;5.13;;;19.00;91.60;;;;;;4976665;28;20034;-70
2021/07/28 09:54:56;;;;;;;7.63;4.75;;;19.20;91.60;;;;;;4974950;28;20352;-70
2021/07/28 09:57:23;;;;;;;6.60;4.90;;;19.40;91.30;;;;;;4975721;28;20023;-69
2021/07/28 09:59:52;;;;;;;6.07;4.80;;;19.60;91.10;;;;;;4977381;28;20050;-69
2021/07/28 10:02:23;;;;;;;5.38;4.65;;;19.70;90.90;;;;;;4992065;28;20113;-69
2021/07/28 10:04:50;;;;;;;5.70;4.63;;;19.80;90.90;;;;;;4975315;28;20082;-70
2021/07/28 10:07:18;;;;;;;8.93;4.70;;;19.90;90.70;;;;;;4995294;28;20093;-70
2021/07/28 10:09:50;;;;;;;4.50;4.10;;;19.90;90.50;;;;;;4995747;28;20427;-70
2021/07/28 10:12:16;;;;;;;;;;;19.90;90.50;;;;;;4995311;28;20074;-70
2021/07/28 10:14:43;;;;;;;6.35;4.25;;;20.00;90.60;;;;;;4990502;28;20004;-70
2021/07/28 10:17:11;;;;;;;6.93;4.05;;;20.00;90.40;;;;;;4993789;28;20026;-68
2021/07/28 10:19:37;;;;;;;5.55;4.22;;;20.00;90.30;;;;;;4995234;28;20026;-69
2021/07/28 10:22:03;;;;;;;5.07;4.00;;;20.00;90.20;;;;;;4994861;28;20089;-70
2021/07/28 10:24:29;;;;;;;4.05;3.65;;;20.00;90.10;;;;;;4994665;28;20022;-70
2021/07/28 10:26:57;;;;;;;4.28;3.88;;;20.00;90.00;;;;;;4993232;28;20446;-70
2021/07/28 10:29:23;;;;;;;5.47;3.83;;;20.00;89.60;;;;;;4994412;28;20375;-70
2021/07/28 10:31:53;;;;;;;6.50;3.58;;;20.10;89.70;;;;;;4994642;28;20113;-71
2021/07/28 10:34:36;;;;;;;5.68;3.70;;;20.10;89.40;;;;;;4994902;28;20686;-68
2021/07/28 10:37:05;;;;;;;6.18;3.60;;;20.10;89.00;;;;;;4994502;28;20117;-70
2021/07/28 10:39:47;;;;;;;4.63;3.20;;;20.10;89.00;;;;;;4994428;28;20084;-70
2021/07/28 10:42:19;;;;;;;5.90;3.38;;;20.10;89.10;;;;;;4994615;28;20026;-71
2021/07/28 10:45:04;;;;;;;4.93;3.87;;;20.10;89.20;;;;;;4993738;28;20023;-69
2021/07/28 10:47:52;;;;;;;6.65;3.80;;;20.20;89.10;;;;;;4993527;28;20100;-69
2021/07/28 10:50:28;;;;;;;5.45;3.33;;;20.30;88.80;;;;;;4994930;28;20386;-70
2021/07/28 10:53:01;;;;;;;6.18;3.75;;;20.30;88.70;;;;;;4994388;28;20113;-69
2021/07/28 10:55:37;;;;;;;5.38;3.17;;;20.40;88.90;;;;;;4993558;28;20029;-69
2021/07/28 10:58:09;;;;;;;4.88;3.38;;;20.50;87.70;;;;;;4992465;28;20019;-69
2021/07/28 11:03:05;;;;;;;4.30;3.40;;;20.50;86.50;;;;;;4994375;28;20054;-68
2021/07/28 11:05:34;;;;;;;3.92;3.17;;;20.50;86.70;;;;;;4992795;28;20145;-69
2021/07/28 11:08:05;;;;;;;4.32;3.30;;;20.50;86.50;;;;;;4993588;28;20026;-69
2021/07/28 11:11:01;;;;;;;4.57;3.83;;;20.50;86.90;;;;;;4994239;28;20034;-69
2021/07/28 11:13:28;;;;;;;4.20;3.33;;;20.50;86.00;;;;;;4981871;28;20491;-69
2021/07/28 11:16:03;;;;;;;4.45;3.13;;;20.50;86.20;;;;;;4992812;28;20041;-70
2021/07/28 11:18:39;;;;;;;5.47;3.30;;;20.50;85.90;;;;;;4992254;28;20022;-69
2021/07/28 11:21:26;;;;;;;3.78;3.38;;;20.60;85.70;;;;;;4993293;28;20069;-69
2021/07/28 11:23:56;;;;;;;6.50;3.22;;;20.50;85.70;;;;;;4994034;28;20050;-69
2021/07/28 11:26:33;;;;;;;5.18;3.45;;;20.50;86.00;;;;;;4991355;28;20029;-69
2021/07/28 11:29:05;;;;;;;3.83;3.50;;;20.60;86.20;;;;;;4988380;28;20494;-70
2021/07/28 11:31:41;;;;;;;4.25;3.50;;;20.70;85.80;;;;;;4993668;28;20088;-69
2021/07/28 11:34:21;;;;;;;4.22;2.90;;;20.70;85.80;;;;;;4993719;28;20037;-70
2021/07/28 11:36:58;;;;;;;6.38;3.25;;;20.70;85.10;;;;;;4992593;28;20033;-70
2021/07/28 11:39:25;;;;;;;5.07;3.53;;;20.70;84.70;;;;;;4993252;28;20038;-69
2021/07/28 11:42:00;;;;;;;5.82;3.60;;;20.70;85.30;;;;;;4993358;28;20030;-71
2021/07/28 11:44:26;;;;;;;4.10;3.25;;;20.70;84.80;;;;;;4993567;28;20386;-69
2021/07/28 11:46:54;;;;;;;5.78;3.30;;;20.70;84.70;;;;;;4992747;28;20025;-69
2021/07/28 11:49:24;;;;;;;7.75;3.58;;;20.70;84.30;;;;;;4993649;28;20037;-70
2021/07/28 11:51:49;;;;;;;5.30;3.33;;;20.80;84.10;;;;;;4993717;28;20034;-69
2021/07/28 11:54:17;;;;;;;3.10;2.70;;;20.80;83.80;;;;;;4993318;28;20056;-70
2021/07/28 11:56:52;;;;;;;3.65;2.95;;;20.80;83.70;;;;;;4992120;28;20029;-69
2021/07/28 11:59:26;;;;;;;4.63;3.10;;;20.80;83.80;;;;;;4993326;28;20081;-70
2021/07/28 12:01:51;;;;;;;4.32;3.58;;;20.90;83.90;;;;;;4993023;28;20019;-70
2021/07/28 12:04:19;;;;;;;3.88;3.13;;;21.00;84.00;;;;;;4993247;28;20023;-69
2021/07/28 12:06:45;;;;;;;4.25;2.90;;;21.20;84.20;;;;;;4992011;28;20425;-69
2021/07/28 12:09:22;;;;;;;2.60;2.40;;;21.40;84.20;;;;;;4992165;28;20030;-69
2021/07/28 12:12:02;;;;;;;4.68;3.15;;;21.70;83.50;;;;;;4993144;28;20105;-70
2021/07/28 12:14:32;;;;;;;4.03;3.13;;;21.90;82.00;;;;;;4987591;28;20029;-70
2021/07/28 12:17:18;;;;;;;3.92;3.10;;;22.10;81.50;;;;;;4990522;28;20505;-70
2021/07/28 12:20:14;;;;;;;3.65;3.22;;;22.10;81.00;;;;;;4992847;28;20037;-71
2021/07/28 12:22:41;;;;;;;5.25;3.17;;;22.20;81.10;;;;;;4972628;28;20427;-69
2021/07/28 12:25:15;;;;;;;4.25;3.30;;;22.40;81.00;;;;;;4972231;28;20023;-69
2021/07/28 12:28:02;;;;;;;3.83;2.72;;;22.50;79.40;;;;;;4984893;28;20022;-69
2021/07/28 12:30:39;;;;;;;3.92;3.45;;;22.50;78.90;;;;;;4992428;28;20423;-70
2021/07/28 12:33:12;;;;;;;4.43;2.95;;;22.50;78.10;;;;;;4992074;28;20026;-69
2021/07/28 12:35:47;;;;;;;5.63;2.92;;;22.50;79.20;;;;;;4979240;28;20078;-70
2021/07/28 12:38:29;;;;;;;5.13;3.20;;;22.60;79.10;;;;;;4980961;28;20030;-70
2021/07/28 12:40:59;;;;;;;4.70;3.05;;;22.70;78.70;;;;;;4992626;28;20562;-70
2021/07/28 12:43:36;;;;;;;6.00;3.40;;;22.80;78.70;;;;;;4992422;28;20030;-69
2021/07/28 12:46:04;;;;;;;4.28;3.22;;;23.00;78.30;;;;;;4990122;28;20045;-69
2021/07/28 12:48:31;;;;;;;4.35;3.00;;;23.00;78.30;;;;;;4992039;28;20169;-70